EBCI

Brussels South Charleroi Airport

Brussels, Belgium
METAR EBCI 152150Z 18004KT CAVOK 15/13 Q1019 NOSIG
Observed Flight Rules
Aug-15 @ 21:50 UTC (38 minutes ago) Visual Flight Rules
Wind Visibility Clouds
180° at 4 knots 10,000+ meters
  • Clear skies
Temperatures Readings
Current 15°C / 59°F
Dewpoint 13°C / 55°F
Humidity 88%
Altimeter 30.09" Hg
Pressure 1019 hPa
Elevation 192
METAR EBCI 152150Z 18004KT CAVOK 15/13 Q1019 NOSIG
Observed Flight Rules
Aug-15 @ 21:50 UTC
(38 minutes ago)
VFR
Wind Visibility
180° at 4 knots 10,000+ meters
Clouds
  • Clear skies
Temperature Dewpoint
15°C / 59°F 13°C / 55°F
Humidity Altimeter Pressure
88% 30.09" Hg 1019 hPa